REA25WT EGFF-EGHC
Flight info
| Callsign | REA25WT |
|---|---|
| Flight time | 0h 44m |
| Altitude | 20000 |
| Route | EPACE DCT TACQI DCT EGHQ DCT LND |
| Aircraft | SF50/L-SDGRWY/L |
Departure
| Time | 2026-05-08 14:46 |
|---|---|
| Airport | Cardiff International Airport (EGFF) |
Arrival
| Time | 2026-05-08 15:30 |
|---|---|
| Airport | Land's End Airport (EGHC) |
| Time | Latitude | Longitude | Altitude | Speed | Heading |
|---|---|---|---|---|---|
| 2026-05-08 14:23 | 51.39453 | -3.34484 | 218 ft | 0 kts | 313° |
| 2026-05-08 14:42 | 51.39460 | -3.34493 | 219 ft | 2 kts | 342° |
| 2026-05-08 14:42 | 51.39463 | -3.34494 | 219 ft | 3 kts | 353° |
| 2026-05-08 14:42 | 51.39506 | -3.34465 | 215 ft | 8 kts | 308° |
| 2026-05-08 14:43 | 51.39510 | -3.34559 | 217 ft | 10 kts | 256° |
| 2026-05-08 14:43 | 51.39491 | -3.34679 | 221 ft | 12 kts | 255° |
| 2026-05-08 14:43 | 51.39468 | -3.34827 | 223 ft | 16 kts | 255° |
| 2026-05-08 14:43 | 51.39445 | -3.34971 | 224 ft | 7 kts | 255° |
| 2026-05-08 14:44 | 51.39465 | -3.35025 | 225 ft | 6 kts | 0° |
| 2026-05-08 14:44 | 51.39502 | -3.34999 | 225 ft | 9 kts | 32° |
| 2026-05-08 14:44 | 51.39570 | -3.34945 | 222 ft | 13 kts | 27° |
| 2026-05-08 14:44 | 51.39664 | -3.34867 | 215 ft | 16 kts | 28° |
| 2026-05-08 14:45 | 51.39751 | -3.34794 | 215 ft | 7 kts | 27° |
| 2026-05-08 14:45 | 51.39773 | -3.34775 | 215 ft | 1 kts | 28° |
| 2026-05-08 14:45 | 51.39793 | -3.34749 | 216 ft | 12 kts | 68° |
| 2026-05-08 14:45 | 51.39776 | -3.34686 | 216 ft | 8 kts | 114° |
| 2026-05-08 14:46 | 51.39732 | -3.34551 | 216 ft | 32 kts | 117° |
| 2026-05-08 14:46 | 51.39513 | -3.33865 | 219 ft | 103 kts | 117° |
| 2026-05-08 14:46 | 51.39140 | -3.32679 | 395 ft | 137 kts | 116° |
| 2026-05-08 14:46 | 51.38678 | -3.31403 | 1116 ft | 128 kts | 136° |
| 2026-05-08 14:47 | 51.37758 | -3.31009 | 1174 ft | 167 kts | 194° |
| 2026-05-08 14:47 | 51.36899 | -3.32291 | 1585 ft | 172 kts | 229° |
| 2026-05-08 14:47 | 51.36103 | -3.33721 | 1915 ft | 174 kts | 218° |
| 2026-05-08 14:47 | 51.35145 | -3.34874 | 2393 ft | 183 kts | 214° |
| 2026-05-08 14:48 | 51.34031 | -3.36251 | 2543 ft | 220 kts | 217° |
| 2026-05-08 14:48 | 51.32815 | -3.37858 | 3023 ft | 236 kts | 218° |
| 2026-05-08 14:48 | 51.31530 | -3.39677 | 3195 ft | 256 kts | 223° |
| 2026-05-08 14:48 | 51.30361 | -3.41662 | 3374 ft | 229 kts | 225° |
| 2026-05-08 14:49 | 51.29228 | -3.43553 | 3516 ft | 243 kts | 224° |
| 2026-05-08 14:49 | 51.28026 | -3.45451 | 3684 ft | 237 kts | 222° |
| 2026-05-08 14:49 | 51.26839 | -3.47326 | 3666 ft | 247 kts | 223° |
| 2026-05-08 14:49 | 51.25634 | -3.49238 | 4084 ft | 237 kts | 224° |
| 2026-05-08 14:50 | 51.24564 | -3.50998 | 5004 ft | 211 kts | 226° |
| 2026-05-08 14:50 | 51.24328 | -3.51452 | 5258 ft | 205 kts | 230° |
| 2026-05-08 14:50 | 51.23877 | -3.52655 | 5938 ft | 189 kts | 240° |
| 2026-05-08 14:51 | 51.23521 | -3.54059 | 6738 ft | 172 kts | 248° |
| 2026-05-08 14:51 | 51.23334 | -3.54969 | 7064 ft | 173 kts | 249° |
| 2026-05-08 14:52 | 51.23088 | -3.56146 | 7412 ft | 175 kts | 249° |
| 2026-05-08 14:52 | 51.22721 | -3.57984 | 8125 ft | 175 kts | 249° |
| 2026-05-08 14:53 | 51.22350 | -3.59847 | 8726 ft | 177 kts | 249° |
| 2026-05-08 14:53 | 51.21970 | -3.61724 | 9357 ft | 178 kts | 249° |
| 2026-05-08 14:53 | 51.21589 | -3.63610 | 9986 ft | 179 kts | 249° |
| 2026-05-08 14:53 | 51.21207 | -3.65515 | 10516 ft | 182 kts | 249° |
| 2026-05-08 14:54 | 51.20818 | -3.67440 | 11048 ft | 183 kts | 249° |
| 2026-05-08 14:54 | 51.20421 | -3.69383 | 11606 ft | 185 kts | 249° |
| 2026-05-08 14:54 | 51.20025 | -3.71349 | 12133 ft | 188 kts | 249° |
| 2026-05-08 14:54 | 51.19629 | -3.73308 | 12676 ft | 189 kts | 249° |
| 2026-05-08 14:55 | 51.19221 | -3.75318 | 13209 ft | 192 kts | 249° |
| 2026-05-08 14:55 | 51.18811 | -3.77344 | 13732 ft | 193 kts | 248° |
| 2026-05-08 14:55 | 51.18393 | -3.79392 | 14206 ft | 195 kts | 249° |
| 2026-05-08 14:55 | 51.17986 | -3.81473 | 14653 ft | 198 kts | 250° |
| 2026-05-08 14:56 | 51.17596 | -3.83586 | 15121 ft | 199 kts | 251° |
| 2026-05-08 14:56 | 51.17224 | -3.85721 | 15583 ft | 201 kts | 252° |
| 2026-05-08 14:56 | 51.16868 | -3.87878 | 16036 ft | 202 kts | 253° |
| 2026-05-08 14:56 | 51.16528 | -3.90064 | 16495 ft | 204 kts | 254° |
| 2026-05-08 14:57 | 51.16210 | -3.92232 | 16936 ft | 205 kts | 255° |
| 2026-05-08 14:57 | 51.15901 | -3.94459 | 17382 ft | 206 kts | 255° |
| 2026-05-08 14:57 | 51.15612 | -3.96701 | 17819 ft | 207 kts | 257° |
| 2026-05-08 14:57 | 51.15343 | -3.98967 | 18250 ft | 209 kts | 257° |
| 2026-05-08 14:58 | 51.15095 | -4.01254 | 18622 ft | 210 kts | 258° |
| 2026-05-08 14:58 | 51.14871 | -4.03557 | 18997 ft | 211 kts | 259° |
| 2026-05-08 14:58 | 51.14667 | -4.05871 | 19374 ft | 211 kts | 260° |
| 2026-05-08 14:58 | 51.14478 | -4.08225 | 19564 ft | 221 kts | 260° |
| 2026-05-08 14:59 | 51.14287 | -4.10741 | 19614 ft | 234 kts | 261° |
| 2026-05-08 14:59 | 51.13958 | -4.15812 | 20030 ft | 241 kts | 262° |
| 2026-05-08 14:59 | 51.13768 | -4.18503 | 20036 ft | 247 kts | 256° |
| 2026-05-08 15:00 | 51.13096 | -4.21035 | 20037 ft | 252 kts | 237° |
| 2026-05-08 15:00 | 51.12112 | -4.23377 | 20045 ft | 257 kts | 236° |
| 2026-05-08 15:00 | 51.11210 | -4.25875 | 20043 ft | 263 kts | 242° |
| 2026-05-08 15:00 | 51.10410 | -4.28530 | 20046 ft | 269 kts | 243° |
| 2026-05-08 15:01 | 51.09584 | -4.31233 | 20049 ft | 275 kts | 242° |
| 2026-05-08 15:01 | 51.08700 | -4.33955 | 20053 ft | 279 kts | 241° |
| 2026-05-08 15:01 | 51.07818 | -4.36686 | 20056 ft | 283 kts | 242° |
| 2026-05-08 15:01 | 51.06925 | -4.39490 | 20058 ft | 286 kts | 242° |
| 2026-05-08 15:02 | 51.06022 | -4.42324 | 20060 ft | 288 kts | 242° |
| 2026-05-08 15:02 | 51.05083 | -4.45141 | 20059 ft | 289 kts | 238° |
| 2026-05-08 15:02 | 51.03831 | -4.47633 | 20054 ft | 290 kts | 225° |
| 2026-05-08 15:02 | 51.02265 | -4.49651 | 20051 ft | 291 kts | 213° |
| 2026-05-08 15:03 | 51.00498 | -4.51216 | 20050 ft | 292 kts | 209° |
| 2026-05-08 15:03 | 50.98713 | -4.52764 | 20053 ft | 293 kts | 210° |
| 2026-05-08 15:03 | 50.96934 | -4.54339 | 20050 ft | 294 kts | 210° |
| 2026-05-08 15:03 | 50.95150 | -4.55917 | 20050 ft | 294 kts | 210° |
| 2026-05-08 15:04 | 50.93402 | -4.57521 | 20049 ft | 294 kts | 210° |
| 2026-05-08 15:04 | 50.91611 | -4.59087 | 20051 ft | 294 kts | 209° |
| 2026-05-08 15:04 | 50.89805 | -4.60623 | 20051 ft | 295 kts | 209° |
| 2026-05-08 15:04 | 50.88005 | -4.62180 | 20051 ft | 295 kts | 209° |
| 2026-05-08 15:05 | 50.86207 | -4.63747 | 20050 ft | 295 kts | 209° |
| 2026-05-08 15:05 | 50.84404 | -4.65306 | 20050 ft | 295 kts | 209° |
| 2026-05-08 15:05 | 50.82600 | -4.66865 | 20050 ft | 295 kts | 209° |
| 2026-05-08 15:05 | 50.80797 | -4.68423 | 20050 ft | 296 kts | 209° |
| 2026-05-08 15:06 | 50.79014 | -4.69960 | 20064 ft | 296 kts | 209° |
| 2026-05-08 15:06 | 50.77208 | -4.71515 | 20056 ft | 296 kts | 209° |
| 2026-05-08 15:06 | 50.75403 | -4.73068 | 20056 ft | 295 kts | 209° |
| 2026-05-08 15:06 | 50.73598 | -4.74621 | 20056 ft | 295 kts | 209° |
| 2026-05-08 15:07 | 50.71794 | -4.76171 | 20056 ft | 295 kts | 209° |
| 2026-05-08 15:07 | 50.69991 | -4.77720 | 20056 ft | 295 kts | 209° |
| 2026-05-08 15:07 | 50.68188 | -4.79268 | 20056 ft | 295 kts | 209° |
| 2026-05-08 15:07 | 50.66389 | -4.80813 | 20056 ft | 295 kts | 209° |
| 2026-05-08 15:08 | 50.64585 | -4.82357 | 20056 ft | 295 kts | 209° |
| 2026-05-08 15:08 | 50.63391 | -4.83380 | 20056 ft | 295 kts | 209° |
| 2026-05-08 15:08 | 50.60978 | -4.85445 | 20047 ft | 295 kts | 209° |
| 2026-05-08 15:08 | 50.59199 | -4.86962 | 20046 ft | 295 kts | 209° |
| 2026-05-08 15:09 | 50.57396 | -4.88500 | 20045 ft | 295 kts | 209° |
| 2026-05-08 15:09 | 50.55592 | -4.90039 | 20045 ft | 295 kts | 209° |
| 2026-05-08 15:09 | 50.53787 | -4.91578 | 20035 ft | 295 kts | 209° |
| 2026-05-08 15:09 | 50.51983 | -4.93111 | 20034 ft | 295 kts | 209° |
| 2026-05-08 15:10 | 50.50177 | -4.94648 | 20035 ft | 295 kts | 209° |
| 2026-05-08 15:10 | 50.48374 | -4.96182 | 20035 ft | 295 kts | 209° |
| 2026-05-08 15:10 | 50.46569 | -4.97715 | 20036 ft | 295 kts | 209° |
| 2026-05-08 15:10 | 50.44822 | -4.99383 | 20029 ft | 294 kts | 217° |
| 2026-05-08 15:11 | 50.43352 | -5.01542 | 20026 ft | 294 kts | 228° |
| 2026-05-08 15:11 | 50.42120 | -5.04096 | 20025 ft | 294 kts | 233° |
| 2026-05-08 15:11 | 50.40907 | -5.06672 | 20025 ft | 294 kts | 232° |
| 2026-05-08 15:11 | 50.39679 | -5.09234 | 20026 ft | 294 kts | 232° |
| 2026-05-08 15:12 | 50.38459 | -5.11804 | 20028 ft | 294 kts | 233° |
| 2026-05-08 15:12 | 50.37242 | -5.14380 | 19986 ft | 295 kts | 233° |
| 2026-05-08 15:12 | 50.35993 | -5.17012 | 19493 ft | 300 kts | 233° |
| 2026-05-08 15:12 | 50.34761 | -5.19606 | 19055 ft | 295 kts | 233° |
| 2026-05-08 15:13 | 50.33530 | -5.22197 | 18630 ft | 299 kts | 233° |
| 2026-05-08 15:13 | 50.32298 | -5.24782 | 18201 ft | 302 kts | 233° |
| 2026-05-08 15:13 | 50.31041 | -5.27424 | 17716 ft | 303 kts | 233° |
| 2026-05-08 15:13 | 50.29781 | -5.30067 | 17224 ft | 303 kts | 232° |
| 2026-05-08 15:14 | 50.28521 | -5.32704 | 16755 ft | 302 kts | 232° |
| 2026-05-08 15:14 | 50.27269 | -5.35322 | 16288 ft | 299 kts | 232° |
| 2026-05-08 15:14 | 50.26056 | -5.37861 | 15830 ft | 281 kts | 232° |
| 2026-05-08 15:14 | 50.24941 | -5.40194 | 15372 ft | 255 kts | 232° |
| 2026-05-08 15:15 | 50.23924 | -5.42314 | 14915 ft | 235 kts | 232° |
| 2026-05-08 15:15 | 50.22967 | -5.44303 | 14473 ft | 230 kts | 232° |
| 2026-05-08 15:15 | 50.22004 | -5.46312 | 14040 ft | 232 kts | 232° |
| 2026-05-08 15:15 | 50.21031 | -5.48333 | 13583 ft | 233 kts | 232° |
| 2026-05-08 15:16 | 50.20057 | -5.50360 | 13100 ft | 233 kts | 232° |
| 2026-05-08 15:16 | 50.19090 | -5.52373 | 12638 ft | 231 kts | 232° |
| 2026-05-08 15:16 | 50.18127 | -5.54373 | 12169 ft | 230 kts | 232° |
| 2026-05-08 15:16 | 50.17164 | -5.56368 | 11640 ft | 230 kts | 232° |
| 2026-05-08 15:17 | 50.16210 | -5.58349 | 11113 ft | 228 kts | 232° |
| 2026-05-08 15:17 | 50.15260 | -5.60320 | 10592 ft | 226 kts | 232° |
| 2026-05-08 15:17 | 50.14467 | -5.62370 | 10074 ft | 226 kts | 251° |
| 2026-05-08 15:17 | 50.14569 | -5.64800 | 9508 ft | 232 kts | 291° |
| 2026-05-08 15:18 | 50.15657 | -5.66618 | 8934 ft | 235 kts | 330° |
| 2026-05-08 15:18 | 50.17243 | -5.66975 | 8370 ft | 233 kts | 11° |
| 2026-05-08 15:18 | 50.18641 | -5.65797 | 7829 ft | 228 kts | 41° |
| 2026-05-08 15:18 | 50.19714 | -5.64032 | 7292 ft | 223 kts | 62° |
| 2026-05-08 15:19 | 50.20061 | -5.61724 | 6774 ft | 218 kts | 88° |
| 2026-05-08 15:19 | 50.20120 | -5.59365 | 6255 ft | 217 kts | 90° |
| 2026-05-08 15:19 | 50.20166 | -5.57013 | 5714 ft | 216 kts | 90° |
| 2026-05-08 15:19 | 50.20209 | -5.54688 | 5183 ft | 213 kts | 90° |
| 2026-05-08 15:20 | 50.20251 | -5.52392 | 4647 ft | 210 kts | 90° |
| 2026-05-08 15:20 | 50.20290 | -5.50151 | 4110 ft | 208 kts | 91° |
| 2026-05-08 15:20 | 50.20335 | -5.47914 | 3572 ft | 205 kts | 89° |
| 2026-05-08 15:20 | 50.20334 | -5.45709 | 3039 ft | 201 kts | 97° |
| 2026-05-08 15:21 | 50.19685 | -5.43849 | 2541 ft | 199 kts | 141° |
| 2026-05-08 15:21 | 50.18405 | -5.43399 | 2511 ft | 195 kts | 185° |
| 2026-05-08 15:21 | 50.17124 | -5.44117 | 2514 ft | 194 kts | 214° |
| 2026-05-08 15:21 | 50.16318 | -5.45663 | 2512 ft | 178 kts | 244° |
| 2026-05-08 15:22 | 50.15940 | -5.47474 | 2512 ft | 181 kts | 252° |
| 2026-05-08 15:22 | 50.15551 | -5.49413 | 2526 ft | 190 kts | 250° |
| 2026-05-08 15:22 | 50.15090 | -5.51302 | 2530 ft | 189 kts | 246° |
| 2026-05-08 15:22 | 50.14587 | -5.53212 | 2526 ft | 190 kts | 243° |
| 2026-05-08 15:23 | 50.14013 | -5.55081 | 2461 ft | 195 kts | 243° |
| 2026-05-08 15:23 | 50.13417 | -5.57027 | 2102 ft | 192 kts | 243° |
| 2026-05-08 15:23 | 50.12891 | -5.58692 | 1842 ft | 153 kts | 241° |
| 2026-05-08 15:23 | 50.12441 | -5.60025 | 1479 ft | 123 kts | 241° |
| 2026-05-08 15:24 | 50.12044 | -5.61296 | 1394 ft | 138 kts | 244° |
| 2026-05-08 15:24 | 50.11647 | -5.62698 | 1234 ft | 129 kts | 246° |
| 2026-05-08 15:24 | 50.11315 | -5.63938 | 1060 ft | 134 kts | 247° |
| 2026-05-08 15:24 | 50.10905 | -5.65311 | 817 ft | 130 kts | 245° |
| 2026-05-08 15:25 | 50.10575 | -5.66430 | 559 ft | 101 kts | 246° |
| 2026-05-08 15:25 | 50.10303 | -5.67340 | 384 ft | 82 kts | 246° |
| 2026-05-08 15:25 | 50.10047 | -5.68193 | 456 ft | 99 kts | 246° |
| 2026-05-08 15:25 | 50.09743 | -5.69242 | 611 ft | 116 kts | 246° |
| 2026-05-08 15:26 | 50.09363 | -5.70408 | 825 ft | 123 kts | 229° |
| 2026-05-08 15:26 | 50.08490 | -5.70832 | 965 ft | 156 kts | 171° |
| 2026-05-08 15:26 | 50.07582 | -5.69667 | 1397 ft | 183 kts | 110° |
| 2026-05-08 15:26 | 50.07670 | -5.67608 | 1891 ft | 211 kts | 72° |
| 2026-05-08 15:27 | 50.08328 | -5.65500 | 2272 ft | 222 kts | 63° |
| 2026-05-08 15:27 | 50.09069 | -5.63572 | 1916 ft | 196 kts | 58° |
| 2026-05-08 15:27 | 50.09802 | -5.61921 | 1644 ft | 177 kts | 55° |
| 2026-05-08 15:27 | 50.10513 | -5.60562 | 1550 ft | 140 kts | 42° |
| 2026-05-08 15:28 | 50.11341 | -5.60370 | 1391 ft | 123 kts | 339° |
| 2026-05-08 15:28 | 50.12061 | -5.61086 | 1137 ft | 119 kts | 327° |
| 2026-05-08 15:28 | 50.12565 | -5.61902 | 952 ft | 95 kts | 307° |
| 2026-05-08 15:28 | 50.12909 | -5.63011 | 919 ft | 126 kts | 282° |
| 2026-05-08 15:29 | 50.12856 | -5.64464 | 846 ft | 141 kts | 253° |
| 2026-05-08 15:29 | 50.12309 | -5.65420 | 886 ft | 110 kts | 179° |
| 2026-05-08 15:29 | 50.11697 | -5.64839 | 757 ft | 102 kts | 134° |
| 2026-05-08 15:29 | 50.11129 | -5.64302 | 704 ft | 96 kts | 194° |
| 2026-05-08 15:30 | 50.10724 | -5.65043 | 676 ft | 92 kts | 242° |
| 2026-05-08 15:30 | 50.10562 | -5.66009 | 533 ft | 89 kts | 262° |
| 2026-05-08 15:30 | 50.10424 | -5.66935 | 408 ft | 84 kts | 246° |
| 2026-05-08 15:30 | 50.10236 | -5.67563 | 384 ft | 22 kts | 245° |
| 2026-05-08 15:31 | 50.10186 | -5.67730 | 384 ft | 13 kts | 245° |
| 2026-05-08 15:31 | 50.10146 | -5.67827 | 384 ft | 9 kts | 239° |
| 2026-05-08 15:31 | 50.10142 | -5.67850 | 384 ft | 1 kts | 316° |
| 2026-05-08 15:31 | 50.10181 | -5.67743 | 384 ft | 15 kts | 63° |
| 2026-05-08 15:32 | 50.10227 | -5.67596 | 384 ft | 16 kts | 64° |
| 2026-05-08 15:32 | 50.10274 | -5.67442 | 385 ft | 16 kts | 65° |
| 2026-05-08 15:32 | 50.10326 | -5.67271 | 384 ft | 18 kts | 65° |
| 2026-05-08 15:32 | 50.10372 | -5.67125 | 385 ft | 6 kts | 63° |
| 2026-05-08 15:33 | 50.10387 | -5.67038 | 384 ft | 10 kts | 142° |
| 2026-05-08 15:33 | 50.10330 | -5.67000 | 385 ft | 8 kts | 156° |
| 2026-05-08 15:33 | 50.10282 | -5.66968 | 385 ft | 7 kts | 156° |
| 2026-05-08 15:33 | 50.10233 | -5.66931 | 385 ft | 15 kts | 107° |
| 2026-05-08 15:34 | 50.10233 | -5.66860 | 385 ft | 5 kts | 70° |
| 2026-05-08 15:34 | 50.10231 | -5.66840 | 385 ft | 0 kts | 147° |